sensor_id;sensor_type;location;lat;lon;timestamp;temperature;humidity
59146;DHT22;44928;53.074;6.646;2023-12-04T00:01:50;0.70;99.90
59146;DHT22;44928;53.074;6.646;2023-12-04T00:04:16;0.70;99.90
59146;DHT22;44928;53.074;6.646;2023-12-04T00:06:42;0.70;99.90
59146;DHT22;44928;53.074;6.646;2023-12-04T00:09:08;0.70;99.90
59146;DHT22;44928;53.074;6.646;2023-12-04T00:11:33;0.70;99.90
59146;DHT22;44928;53.074;6.646;2023-12-04T00:13:59;0.70;99.90
59146;DHT22;44928;53.074;6.646;2023-12-04T00:16:26;0.70;99.90
59146;DHT22;44928;53.074;6.646;2023-12-04T00:18:51;0.70;99.90
59146;DHT22;44928;53.074;6.646;2023-12-04T00:21:17;0.70;99.90
59146;DHT22;44928;53.074;6.646;2023-12-04T00:23:43;0.70;99.90
59146;DHT22;44928;53.074;6.646;2023-12-04T00:26:09;0.70;99.90
59146;DHT22;44928;53.074;6.646;2023-12-04T00:28:38;0.70;99.90
59146;DHT22;44928;53.074;6.646;2023-12-04T00:31:04;0.70;99.90
59146;DHT22;44928;53.074;6.646;2023-12-04T00:33:30;0.70;99.90
59146;DHT22;44928;53.074;6.646;2023-12-04T00:35:57;0.70;99.90
59146;DHT22;44928;53.074;6.646;2023-12-04T00:38:22;0.70;99.90
59146;DHT22;44928;53.074;6.646;2023-12-04T00:40:48;0.70;99.90
59146;DHT22;44928;53.074;6.646;2023-12-04T00:43:14;0.60;99.90
59146;DHT22;44928;53.074;6.646;2023-12-04T00:45:40;0.60;99.90
59146;DHT22;44928;53.074;6.646;2023-12-04T00:48:06;0.60;99.90
59146;DHT22;44928;53.074;6.646;2023-12-04T00:50:31;0.60;99.90
59146;DHT22;44928;53.074;6.646;2023-12-04T00:52:57;0.60;99.90
59146;DHT22;44928;53.074;6.646;2023-12-04T00:55:23;0.60;99.90
59146;DHT22;44928;53.074;6.646;2023-12-04T00:57:49;0.60;99.90
59146;DHT22;44928;53.074;6.646;2023-12-04T01:00:15;0.60;99.90
59146;DHT22;44928;53.074;6.646;2023-12-04T01:02:41;0.60;99.90
59146;DHT22;44928;53.074;6.646;2023-12-04T01:05:08;0.60;99.90
59146;DHT22;44928;53.074;6.646;2023-12-04T01:07:34;0.60;99.90
59146;DHT22;44928;53.074;6.646;2023-12-04T01:10:00;0.60;99.90
59146;DHT22;44928;53.074;6.646;2023-12-04T01:12:26;0.60;99.90
59146;DHT22;44928;53.074;6.646;2023-12-04T01:14:52;0.60;99.90
59146;DHT22;44928;53.074;6.646;2023-12-04T01:17:18;0.60;99.90
59146;DHT22;44928;53.074;6.646;2023-12-04T01:19:44;0.60;99.90
59146;DHT22;44928;53.074;6.646;2023-12-04T01:22:09;0.60;99.90
59146;DHT22;44928;53.074;6.646;2023-12-04T01:24:35;0.60;99.90
59146;DHT22;44928;53.074;6.646;2023-12-04T01:27:01;0.60;99.90
59146;DHT22;44928;53.074;6.646;2023-12-04T01:29:27;0.60;99.90
59146;DHT22;44928;53.074;6.646;2023-12-04T01:31:53;0.60;99.90
59146;DHT22;44928;53.074;6.646;2023-12-04T01:34:18;0.60;99.90
59146;DHT22;44928;53.074;6.646;2023-12-04T01:36:44;0.60;99.90
59146;DHT22;44928;53.074;6.646;2023-12-04T01:39:10;0.60;99.90
59146;DHT22;44928;53.074;6.646;2023-12-04T01:41:36;0.60;99.90
59146;DHT22;44928;53.074;6.646;2023-12-04T01:44:02;0.60;99.90
59146;DHT22;44928;53.074;6.646;2023-12-04T01:46:28;0.70;99.90
59146;DHT22;44928;53.074;6.646;2023-12-04T01:48:55;0.60;99.90
59146;DHT22;44928;53.074;6.646;2023-12-04T01:51:22;0.60;99.90
59146;DHT22;44928;53.074;6.646;2023-12-04T01:53:48;0.70;99.90
59146;DHT22;44928;53.074;6.646;2023-12-04T01:56:15;0.70;99.90
59146;DHT22;44928;53.074;6.646;2023-12-04T01:58:41;0.60;99.90
59146;DHT22;44928;53.074;6.646;2023-12-04T02:01:07;0.70;99.90
59146;DHT22;44928;53.074;6.646;2023-12-04T02:03:35;0.70;99.90
59146;DHT22;44928;53.074;6.646;2023-12-04T02:06:02;0.70;99.90
59146;DHT22;44928;53.074;6.646;2023-12-04T02:08:29;0.70;99.90
59146;DHT22;44928;53.074;6.646;2023-12-04T02:10:56;0.70;99.90
59146;DHT22;44928;53.074;6.646;2023-12-04T02:13:21;0.70;99.90
59146;DHT22;44928;53.074;6.646;2023-12-04T02:15:50;0.70;99.90
59146;DHT22;44928;53.074;6.646;2023-12-04T02:18:18;0.70;99.90
59146;DHT22;44928;53.074;6.646;2023-12-04T02:20:43;0.70;99.90
59146;DHT22;44928;53.074;6.646;2023-12-04T02:23:09;0.70;99.90
59146;DHT22;44928;53.074;6.646;2023-12-04T02:25:35;0.70;99.90
59146;DHT22;44928;53.074;6.646;2023-12-04T02:28:06;0.60;99.90
59146;DHT22;44928;53.074;6.646;2023-12-04T02:30:34;0.60;99.90
59146;DHT22;44928;53.074;6.646;2023-12-04T02:33:05;0.70;99.90
59146;DHT22;44928;53.074;6.646;2023-12-04T02:35:33;0.70;99.90
59146;DHT22;44928;53.074;6.646;2023-12-04T02:38:01;0.70;99.90
59146;DHT22;44928;53.074;6.646;2023-12-04T02:40:27;0.70;99.90
59146;DHT22;44928;53.074;6.646;2023-12-04T02:42:53;0.70;99.90
59146;DHT22;44928;53.074;6.646;2023-12-04T02:45:19;0.70;99.90
59146;DHT22;44928;53.074;6.646;2023-12-04T02:47:45;0.70;99.90
59146;DHT22;44928;53.074;6.646;2023-12-04T02:50:11;0.70;99.90
59146;DHT22;44928;53.074;6.646;2023-12-04T02:52:37;0.70;99.90
59146;DHT22;44928;53.074;6.646;2023-12-04T02:55:03;0.80;99.90
59146;DHT22;44928;53.074;6.646;2023-12-04T02:57:29;0.70;99.90
59146;DHT22;44928;53.074;6.646;2023-12-04T02:59:55;0.70;99.90
59146;DHT22;44928;53.074;6.646;2023-12-04T03:02:21;0.70;99.90
59146;DHT22;44928;53.074;6.646;2023-12-04T03:04:46;0.80;99.90
59146;DHT22;44928;53.074;6.646;2023-12-04T03:07:12;0.80;99.90
59146;DHT22;44928;53.074;6.646;2023-12-04T03:09:38;0.80;99.90
59146;DHT22;44928;53.074;6.646;2023-12-04T03:12:04;0.80;99.90
59146;DHT22;44928;53.074;6.646;2023-12-04T03:14:30;0.80;99.90
59146;DHT22;44928;53.074;6.646;2023-12-04T03:16:56;0.70;99.90
59146;DHT22;44928;53.074;6.646;2023-12-04T03:19:21;0.70;99.90
59146;DHT22;44928;53.074;6.646;2023-12-04T03:21:47;0.80;99.90
59146;DHT22;44928;53.074;6.646;2023-12-04T03:24:13;0.80;99.90
59146;DHT22;44928;53.074;6.646;2023-12-04T03:26:40;0.70;99.90
59146;DHT22;44928;53.074;6.646;2023-12-04T03:29:06;0.70;99.90
59146;DHT22;44928;53.074;6.646;2023-12-04T03:31:32;0.80;99.90
59146;DHT22;44928;53.074;6.646;2023-12-04T03:33:59;0.80;99.90
59146;DHT22;44928;53.074;6.646;2023-12-04T03:36:25;0.80;99.90
59146;DHT22;44928;53.074;6.646;2023-12-04T03:38:51;0.80;99.90
59146;DHT22;44928;53.074;6.646;2023-12-04T03:41:17;0.80;99.90
59146;DHT22;44928;53.074;6.646;2023-12-04T03:43:43;0.80;99.90
59146;DHT22;44928;53.074;6.646;2023-12-04T03:46:09;0.80;99.90
59146;DHT22;44928;53.074;6.646;2023-12-04T03:48:35;0.80;99.90
59146;DHT22;44928;53.074;6.646;2023-12-04T03:51:01;0.80;99.90
59146;DHT22;44928;53.074;6.646;2023-12-04T03:53:27;0.80;99.90
59146;DHT22;44928;53.074;6.646;2023-12-04T03:55:53;0.90;99.90
59146;DHT22;44928;53.074;6.646;2023-12-04T03:58:18;0.80;99.90
59146;DHT22;44928;53.074;6.646;2023-12-04T04:00:44;0.80;99.90
59146;DHT22;44928;53.074;6.646;2023-12-04T04:03:10;0.80;99.90
59146;DHT22;44928;53.074;6.646;2023-12-04T04:05:36;0.90;99.90
59146;DHT22;44928;53.074;6.646;2023-12-04T04:08:02;0.90;99.90
59146;DHT22;44928;53.074;6.646;2023-12-04T04:10:28;0.90;99.90
59146;DHT22;44928;53.074;6.646;2023-12-04T04:12:54;0.90;99.90
59146;DHT22;44928;53.074;6.646;2023-12-04T04:15:20;0.90;99.90
59146;DHT22;44928;53.074;6.646;2023-12-04T04:17:46;0.90;99.90
59146;DHT22;44928;53.074;6.646;2023-12-04T04:20:12;0.90;99.90
59146;DHT22;44928;53.074;6.646;2023-12-04T04:22:38;0.80;99.90
59146;DHT22;44928;53.074;6.646;2023-12-04T04:25:06;0.90;99.90
59146;DHT22;44928;53.074;6.646;2023-12-04T04:27:32;0.90;99.90
59146;DHT22;44928;53.074;6.646;2023-12-04T04:29:58;0.90;99.90
59146;DHT22;44928;53.074;6.646;2023-12-04T04:32:24;0.90;99.90
59146;DHT22;44928;53.074;6.646;2023-12-04T04:34:50;0.90;99.90
59146;DHT22;44928;53.074;6.646;2023-12-04T04:37:16;0.90;99.90
59146;DHT22;44928;53.074;6.646;2023-12-04T04:39:41;0.90;99.90
59146;DHT22;44928;53.074;6.646;2023-12-04T04:42:07;0.90;99.90
59146;DHT22;44928;53.074;6.646;2023-12-04T04:44:33;0.90;99.90
59146;DHT22;44928;53.074;6.646;2023-12-04T04:46:59;0.90;99.90
59146;DHT22;44928;53.074;6.646;2023-12-04T04:49:25;0.90;99.90
59146;DHT22;44928;53.074;6.646;2023-12-04T04:51:51;0.90;99.90
59146;DHT22;44928;53.074;6.646;2023-12-04T04:54:16;0.90;99.90
59146;DHT22;44928;53.074;6.646;2023-12-04T04:56:42;0.90;99.90
59146;DHT22;44928;53.074;6.646;2023-12-04T04:59:08;0.90;99.90
59146;DHT22;44928;53.074;6.646;2023-12-04T05:01:33;0.90;99.90
59146;DHT22;44928;53.074;6.646;2023-12-04T05:04:00;0.90;99.90
59146;DHT22;44928;53.074;6.646;2023-12-04T05:06:26;0.90;99.90
59146;DHT22;44928;53.074;6.646;2023-12-04T05:08:52;0.90;99.90
59146;DHT22;44928;53.074;6.646;2023-12-04T05:11:18;0.90;99.90
59146;DHT22;44928;53.074;6.646;2023-12-04T05:13:45;0.90;99.90
59146;DHT22;44928;53.074;6.646;2023-12-04T05:16:10;0.90;99.90
59146;DHT22;44928;53.074;6.646;2023-12-04T05:18:38;0.90;99.90
59146;DHT22;44928;53.074;6.646;2023-12-04T05:21:08;0.90;99.90
59146;DHT22;44928;53.074;6.646;2023-12-04T05:23:34;0.90;99.90
59146;DHT22;44928;53.074;6.646;2023-12-04T05:26:00;0.90;99.90
59146;DHT22;44928;53.074;6.646;2023-12-04T05:28:26;0.90;99.90
59146;DHT22;44928;53.074;6.646;2023-12-04T05:30:52;0.90;99.90
59146;DHT22;44928;53.074;6.646;2023-12-04T05:33:18;0.90;99.90
59146;DHT22;44928;53.074;6.646;2023-12-04T05:35:43;0.90;99.90
59146;DHT22;44928;53.074;6.646;2023-12-04T05:38:09;0.90;99.90
59146;DHT22;44928;53.074;6.646;2023-12-04T05:40:35;0.90;99.90
59146;DHT22;44928;53.074;6.646;2023-12-04T05:43:01;0.80;99.90
59146;DHT22;44928;53.074;6.646;2023-12-04T05:45:26;0.90;99.90
59146;DHT22;44928;53.074;6.646;2023-12-04T05:47:52;0.90;99.90
59146;DHT22;44928;53.074;6.646;2023-12-04T05:50:18;0.90;99.90
59146;DHT22;44928;53.074;6.646;2023-12-04T05:52:44;0.90;99.90
59146;DHT22;44928;53.074;6.646;2023-12-04T05:55:10;0.90;99.90
59146;DHT22;44928;53.074;6.646;2023-12-04T05:57:38;0.90;99.90
59146;DHT22;44928;53.074;6.646;2023-12-04T06:00:06;0.90;99.90
59146;DHT22;44928;53.074;6.646;2023-12-04T06:02:41;0.90;99.90
59146;DHT22;44928;53.074;6.646;2023-12-04T06:05:07;0.90;99.90
59146;DHT22;44928;53.074;6.646;2023-12-04T06:07:34;0.90;99.90
59146;DHT22;44928;53.074;6.646;2023-12-04T06:10:00;0.90;99.90
59146;DHT22;44928;53.074;6.646;2023-12-04T06:12:25;0.90;99.90
59146;DHT22;44928;53.074;6.646;2023-12-04T06:14:51;0.90;99.90
59146;DHT22;44928;53.074;6.646;2023-12-04T06:17:17;0.90;99.90
59146;DHT22;44928;53.074;6.646;2023-12-04T06:19:43;0.90;99.90
59146;DHT22;44928;53.074;6.646;2023-12-04T06:22:09;0.90;99.90
59146;DHT22;44928;53.074;6.646;2023-12-04T06:24:35;0.90;99.90
59146;DHT22;44928;53.074;6.646;2023-12-04T06:27:01;0.90;99.90
59146;DHT22;44928;53.074;6.646;2023-12-04T06:29:27;0.90;99.90
59146;DHT22;44928;53.074;6.646;2023-12-04T06:31:53;0.90;99.90
59146;DHT22;44928;53.074;6.646;2023-12-04T06:34:19;0.90;99.90
59146;DHT22;44928;53.074;6.646;2023-12-04T06:36:45;0.90;99.90
59146;DHT22;44928;53.074;6.646;2023-12-04T06:39:12;0.90;99.90
59146;DHT22;44928;53.074;6.646;2023-12-04T06:41:40;0.90;99.90
59146;DHT22;44928;53.074;6.646;2023-12-04T06:44:06;0.90;99.90
59146;DHT22;44928;53.074;6.646;2023-12-04T06:46:36;0.90;99.90
59146;DHT22;44928;53.074;6.646;2023-12-04T06:49:04;0.90;99.90
59146;DHT22;44928;53.074;6.646;2023-12-04T06:51:32;0.90;99.90
59146;DHT22;44928;53.074;6.646;2023-12-04T06:53:58;0.90;99.90
59146;DHT22;44928;53.074;6.646;2023-12-04T06:56:24;0.90;99.90
59146;DHT22;44928;53.074;6.646;2023-12-04T06:58:50;0.90;99.90
59146;DHT22;44928;53.074;6.646;2023-12-04T07:01:16;0.90;99.90
59146;DHT22;44928;53.074;6.646;2023-12-04T07:03:41;0.80;99.90
59146;DHT22;44928;53.074;6.646;2023-12-04T07:06:07;0.80;99.90
59146;DHT22;44928;53.074;6.646;2023-12-04T07:08:33;0.80;99.90
59146;DHT22;44928;53.074;6.646;2023-12-04T07:10:59;0.80;99.90
59146;DHT22;44928;53.074;6.646;2023-12-04T07:13:25;0.80;99.90
59146;DHT22;44928;53.074;6.646;2023-12-04T07:15:51;0.80;99.90
59146;DHT22;44928;53.074;6.646;2023-12-04T07:18:17;0.80;99.90
59146;DHT22;44928;53.074;6.646;2023-12-04T07:20:42;0.70;99.90
59146;DHT22;44928;53.074;6.646;2023-12-04T07:23:08;0.70;99.90
59146;DHT22;44928;53.074;6.646;2023-12-04T07:25:34;0.70;99.90
59146;DHT22;44928;53.074;6.646;2023-12-04T07:28:00;0.70;99.90
59146;DHT22;44928;53.074;6.646;2023-12-04T07:30:25;0.70;99.90
59146;DHT22;44928;53.074;6.646;2023-12-04T07:32:52;0.70;99.90
59146;DHT22;44928;53.074;6.646;2023-12-04T07:35:19;0.70;99.90
59146;DHT22;44928;53.074;6.646;2023-12-04T07:37:44;0.70;99.90
59146;DHT22;44928;53.074;6.646;2023-12-04T07:40:11;0.70;99.90
59146;DHT22;44928;53.074;6.646;2023-12-04T07:42:37;0.70;99.90
59146;DHT22;44928;53.074;6.646;2023-12-04T07:45:03;0.70;99.90
59146;DHT22;44928;53.074;6.646;2023-12-04T07:47:29;0.70;99.90
59146;DHT22;44928;53.074;6.646;2023-12-04T07:49:55;0.70;99.90
59146;DHT22;44928;53.074;6.646;2023-12-04T07:52:20;0.80;99.90
59146;DHT22;44928;53.074;6.646;2023-12-04T07:54:46;0.80;99.90
59146;DHT22;44928;53.074;6.646;2023-12-04T07:57:12;0.80;99.90
59146;DHT22;44928;53.074;6.646;2023-12-04T07:59:38;0.80;99.90
59146;DHT22;44928;53.074;6.646;2023-12-04T08:02:03;0.80;99.90
59146;DHT22;44928;53.074;6.646;2023-12-04T08:04:29;0.80;99.90
59146;DHT22;44928;53.074;6.646;2023-12-04T08:06:55;0.80;99.90
59146;DHT22;44928;53.074;6.646;2023-12-04T08:09:21;0.90;99.90
59146;DHT22;44928;53.074;6.646;2023-12-04T08:11:47;0.90;99.90
59146;DHT22;44928;53.074;6.646;2023-12-04T08:14:13;0.90;99.90
59146;DHT22;44928;53.074;6.646;2023-12-04T08:16:39;0.90;99.90
59146;DHT22;44928;53.074;6.646;2023-12-04T08:19:04;0.90;99.90
59146;DHT22;44928;53.074;6.646;2023-12-04T08:21:30;0.90;99.90
59146;DHT22;44928;53.074;6.646;2023-12-04T08:23:57;1.00;99.90
59146;DHT22;44928;53.074;6.646;2023-12-04T08:26:25;1.00;99.90
59146;DHT22;44928;53.074;6.646;2023-12-04T08:28:52;1.00;99.90
59146;DHT22;44928;53.074;6.646;2023-12-04T08:31:18;1.00;99.90
59146;DHT22;44928;53.074;6.646;2023-12-04T08:33:44;1.00;99.90
59146;DHT22;44928;53.074;6.646;2023-12-04T08:36:11;1.00;99.90
59146;DHT22;44928;53.074;6.646;2023-12-04T08:38:37;1.00;99.90
59146;DHT22;44928;53.074;6.646;2023-12-04T08:41:04;1.10;99.90
59146;DHT22;44928;53.074;6.646;2023-12-04T08:43:30;1.00;99.90
59146;DHT22;44928;53.074;6.646;2023-12-04T08:45:56;1.10;99.90
59146;DHT22;44928;53.074;6.646;2023-12-04T08:48:22;1.10;99.90
59146;DHT22;44928;53.074;6.646;2023-12-04T08:50:47;1.10;99.90
59146;DHT22;44928;53.074;6.646;2023-12-04T08:53:14;1.10;99.90
59146;DHT22;44928;53.074;6.646;2023-12-04T08:55:40;1.10;99.90
59146;DHT22;44928;53.074;6.646;2023-12-04T08:58:05;1.10;99.90
59146;DHT22;44928;53.074;6.646;2023-12-04T09:00:32;1.10;99.90
59146;DHT22;44928;53.074;6.646;2023-12-04T09:02:58;1.10;99.90
59146;DHT22;44928;53.074;6.646;2023-12-04T09:05:24;1.20;99.90
59146;DHT22;44928;53.074;6.646;2023-12-04T09:07:50;1.20;99.90
59146;DHT22;44928;53.074;6.646;2023-12-04T09:10:15;1.20;99.90
59146;DHT22;44928;53.074;6.646;2023-12-04T09:12:42;1.20;99.90
59146;DHT22;44928;53.074;6.646;2023-12-04T09:15:08;1.20;99.90
59146;DHT22;44928;53.074;6.646;2023-12-04T09:17:34;1.20;99.90
59146;DHT22;44928;53.074;6.646;2023-12-04T09:20:00;1.30;99.90
59146;DHT22;44928;53.074;6.646;2023-12-04T09:22:26;1.30;99.90
59146;DHT22;44928;53.074;6.646;2023-12-04T09:24:51;1.30;99.90
59146;DHT22;44928;53.074;6.646;2023-12-04T09:27:17;1.30;99.90
59146;DHT22;44928;53.074;6.646;2023-12-04T09:29:43;1.30;99.90
59146;DHT22;44928;53.074;6.646;2023-12-04T09:32:09;1.40;99.90
59146;DHT22;44928;53.074;6.646;2023-12-04T09:34:35;1.40;99.90
59146;DHT22;44928;53.074;6.646;2023-12-04T09:37:01;1.50;99.90
59146;DHT22;44928;53.074;6.646;2023-12-04T09:39:28;1.50;99.90
59146;DHT22;44928;53.074;6.646;2023-12-04T09:41:54;1.50;99.90
59146;DHT22;44928;53.074;6.646;2023-12-04T09:44:21;1.50;99.90
59146;DHT22;44928;53.074;6.646;2023-12-04T09:46:48;1.60;99.90
59146;DHT22;44928;53.074;6.646;2023-12-04T09:49:14;1.60;99.90
59146;DHT22;44928;53.074;6.646;2023-12-04T09:51:42;1.60;99.90
59146;DHT22;44928;53.074;6.646;2023-12-04T09:54:08;1.60;99.90
59146;DHT22;44928;53.074;6.646;2023-12-04T09:56:35;1.60;99.90
59146;DHT22;44928;53.074;6.646;2023-12-04T09:59:06;1.70;99.90
59146;DHT22;44928;53.074;6.646;2023-12-04T10:01:33;1.70;99.90
59146;DHT22;44928;53.074;6.646;2023-12-04T10:04:00;1.70;99.90
59146;DHT22;44928;53.074;6.646;2023-12-04T10:06:27;1.80;99.90
59146;DHT22;44928;53.074;6.646;2023-12-04T10:08:57;1.80;99.90
59146;DHT22;44928;53.074;6.646;2023-12-04T10:11:26;1.90;99.90
59146;DHT22;44928;53.074;6.646;2023-12-04T10:13:56;1.90;99.90
59146;DHT22;44928;53.074;6.646;2023-12-04T10:16:35;1.90;99.90
59146;DHT22;44928;53.074;6.646;2023-12-04T10:21:40;2.00;99.90
59146;DHT22;44928;53.074;6.646;2023-12-04T10:24:06;2.00;99.90
59146;DHT22;44928;53.074;6.646;2023-12-04T10:26:32;2.10;99.90
59146;DHT22;44928;53.074;6.646;2023-12-04T10:29:04;2.00;99.90
59146;DHT22;44928;53.074;6.646;2023-12-04T10:31:33;2.00;99.90
59146;DHT22;44928;53.074;6.646;2023-12-04T10:34:01;2.00;99.90
59146;DHT22;44928;53.074;6.646;2023-12-04T10:36:27;2.00;99.90
59146;DHT22;44928;53.074;6.646;2023-12-04T10:38:59;2.00;99.90
59146;DHT22;44928;53.074;6.646;2023-12-04T10:41:26;2.00;99.90
59146;DHT22;44928;53.074;6.646;2023-12-04T10:43:52;2.00;99.90
59146;DHT22;44928;53.074;6.646;2023-12-04T10:46:19;1.90;99.90
59146;DHT22;44928;53.074;6.646;2023-12-04T10:48:45;1.90;99.90
59146;DHT22;44928;53.074;6.646;2023-12-04T10:51:13;1.90;99.90
59146;DHT22;44928;53.074;6.646;2023-12-04T10:53:39;1.90;99.90
59146;DHT22;44928;53.074;6.646;2023-12-04T10:56:19;1.90;99.90
59146;DHT22;44928;53.074;6.646;2023-12-04T10:58:51;1.90;99.90
59146;DHT22;44928;53.074;6.646;2023-12-04T11:01:19;2.00;99.90
59146;DHT22;44928;53.074;6.646;2023-12-04T11:03:48;2.00;99.90
59146;DHT22;44928;53.074;6.646;2023-12-04T11:06:18;2.00;99.90
59146;DHT22;44928;53.074;6.646;2023-12-04T11:08:47;2.00;99.90
59146;DHT22;44928;53.074;6.646;2023-12-04T11:11:18;2.10;99.90
59146;DHT22;44928;53.074;6.646;2023-12-04T11:13:50;2.10;99.90
59146;DHT22;44928;53.074;6.646;2023-12-04T11:16:27;2.10;99.90
59146;DHT22;44928;53.074;6.646;2023-12-04T11:19:10;2.10;99.90
59146;DHT22;44928;53.074;6.646;2023-12-04T11:21:39;2.20;99.90
59146;DHT22;44928;53.074;6.646;2023-12-04T11:24:06;2.30;99.90
59146;DHT22;44928;53.074;6.646;2023-12-04T11:26:33;2.40;99.90
59146;DHT22;44928;53.074;6.646;2023-12-04T11:28:59;2.40;99.90
59146;DHT22;44928;53.074;6.646;2023-12-04T11:31:26;2.40;99.90
59146;DHT22;44928;53.074;6.646;2023-12-04T11:33:52;2.40;99.90
59146;DHT22;44928;53.074;6.646;2023-12-04T11:36:18;2.50;99.90
59146;DHT22;44928;53.074;6.646;2023-12-04T11:38:46;2.50;99.90
59146;DHT22;44928;53.074;6.646;2023-12-04T11:41:21;2.50;99.90
59146;DHT22;44928;53.074;6.646;2023-12-04T11:43:47;2.50;99.90
59146;DHT22;44928;53.074;6.646;2023-12-04T11:46:18;2.50;99.90
59146;DHT22;44928;53.074;6.646;2023-12-04T11:48:54;2.50;99.90
59146;DHT22;44928;53.074;6.646;2023-12-04T11:54:07;2.50;99.90
59146;DHT22;44928;53.074;6.646;2023-12-04T11:56:33;2.50;99.90
59146;DHT22;44928;53.074;6.646;2023-12-04T11:59:06;2.50;99.90
59146;DHT22;44928;53.074;6.646;2023-12-04T12:01:38;2.50;99.90
59146;DHT22;44928;53.074;6.646;2023-12-04T12:04:05;2.50;99.90
59146;DHT22;44928;53.074;6.646;2023-12-04T12:06:31;2.50;99.90
59146;DHT22;44928;53.074;6.646;2023-12-04T12:08:57;2.50;99.90
59146;DHT22;44928;53.074;6.646;2023-12-04T12:11:24;2.50;99.90
59146;DHT22;44928;53.074;6.646;2023-12-04T12:13:53;2.50;99.90
59146;DHT22;44928;53.074;6.646;2023-12-04T12:16:19;2.50;99.90
59146;DHT22;44928;53.074;6.646;2023-12-04T12:18:44;2.50;99.90
59146;DHT22;44928;53.074;6.646;2023-12-04T12:21:11;2.50;99.90
59146;DHT22;44928;53.074;6.646;2023-12-04T12:23:37;2.50;99.90
59146;DHT22;44928;53.074;6.646;2023-12-04T12:26:03;2.50;99.90
59146;DHT22;44928;53.074;6.646;2023-12-04T12:28:29;2.50;99.90
59146;DHT22;44928;53.074;6.646;2023-12-04T12:30:55;2.60;99.90
59146;DHT22;44928;53.074;6.646;2023-12-04T12:33:22;2.60;99.90
59146;DHT22;44928;53.074;6.646;2023-12-04T12:35:48;2.60;99.90
59146;DHT22;44928;53.074;6.646;2023-12-04T12:38:15;2.70;99.90
59146;DHT22;44928;53.074;6.646;2023-12-04T12:40:41;2.70;99.90
59146;DHT22;44928;53.074;6.646;2023-12-04T12:43:09;2.70;99.90
59146;DHT22;44928;53.074;6.646;2023-12-04T12:45:41;2.70;99.90
59146;DHT22;44928;53.074;6.646;2023-12-04T12:48:13;2.60;99.90
59146;DHT22;44928;53.074;6.646;2023-12-04T12:50:39;2.60;99.90
59146;DHT22;44928;53.074;6.646;2023-12-04T12:53:05;2.60;99.90
59146;DHT22;44928;53.074;6.646;2023-12-04T12:55:30;2.60;99.90
59146;DHT22;44928;53.074;6.646;2023-12-04T12:57:56;2.60;99.90
59146;DHT22;44928;53.074;6.646;2023-12-04T13:00:23;2.50;99.90
59146;DHT22;44928;53.074;6.646;2023-12-04T13:02:52;2.50;99.90
59146;DHT22;44928;53.074;6.646;2023-12-04T13:05:18;2.50;99.90
59146;DHT22;44928;53.074;6.646;2023-12-04T13:07:45;2.50;99.90
59146;DHT22;44928;53.074;6.646;2023-12-04T13:10:11;2.50;99.90
59146;DHT22;44928;53.074;6.646;2023-12-04T13:12:37;2.40;99.90
59146;DHT22;44928;53.074;6.646;2023-12-04T13:15:03;2.40;99.90
59146;DHT22;44928;53.074;6.646;2023-12-04T13:17:29;2.40;99.90
59146;DHT22;44928;53.074;6.646;2023-12-04T13:19:55;2.40;99.90
59146;DHT22;44928;53.074;6.646;2023-12-04T13:22:21;2.30;99.90
59146;DHT22;44928;53.074;6.646;2023-12-04T13:24:46;2.30;99.90
59146;DHT22;44928;53.074;6.646;2023-12-04T13:27:13;2.30;99.90
59146;DHT22;44928;53.074;6.646;2023-12-04T13:29:39;2.30;99.90
59146;DHT22;44928;53.074;6.646;2023-12-04T13:32:05;2.30;99.90
59146;DHT22;44928;53.074;6.646;2023-12-04T13:34:31;2.40;99.90
59146;DHT22;44928;53.074;6.646;2023-12-04T13:36:57;2.50;99.90
59146;DHT22;44928;53.074;6.646;2023-12-04T13:39:23;2.50;99.90
59146;DHT22;44928;53.074;6.646;2023-12-04T13:42:15;2.50;99.90
59146;DHT22;44928;53.074;6.646;2023-12-04T13:45:00;2.60;99.90
59146;DHT22;44928;53.074;6.646;2023-12-04T13:47:27;2.60;99.90
59146;DHT22;44928;53.074;6.646;2023-12-04T13:49:52;2.60;99.90
59146;DHT22;44928;53.074;6.646;2023-12-04T13:52:18;2.60;99.90
59146;DHT22;44928;53.074;6.646;2023-12-04T13:54:48;2.60;99.90
59146;DHT22;44928;53.074;6.646;2023-12-04T13:57:15;2.60;99.90
59146;DHT22;44928;53.074;6.646;2023-12-04T13:59:54;2.60;99.90
59146;DHT22;44928;53.074;6.646;2023-12-04T14:02:21;2.50;99.90
59146;DHT22;44928;53.074;6.646;2023-12-04T14:04:47;2.50;99.90
59146;DHT22;44928;53.074;6.646;2023-12-04T14:07:14;2.40;99.90
59146;DHT22;44928;53.074;6.646;2023-12-04T14:09:41;2.30;99.90
59146;DHT22;44928;53.074;6.646;2023-12-04T14:12:08;2.30;99.90
59146;DHT22;44928;53.074;6.646;2023-12-04T14:14:34;2.20;99.90
59146;DHT22;44928;53.074;6.646;2023-12-04T14:17:00;2.20;99.90
59146;DHT22;44928;53.074;6.646;2023-12-04T14:19:29;2.10;99.90
59146;DHT22;44928;53.074;6.646;2023-12-04T14:21:55;2.10;99.90
59146;DHT22;44928;53.074;6.646;2023-12-04T14:24:21;2.10;99.90
59146;DHT22;44928;53.074;6.646;2023-12-04T14:26:51;2.10;99.90
59146;DHT22;44928;53.074;6.646;2023-12-04T14:29:17;2.00;99.90
59146;DHT22;44928;53.074;6.646;2023-12-04T14:31:43;2.00;99.90
59146;DHT22;44928;53.074;6.646;2023-12-04T14:34:09;2.00;99.90
59146;DHT22;44928;53.074;6.646;2023-12-04T14:36:35;1.90;99.90
59146;DHT22;44928;53.074;6.646;2023-12-04T14:39:02;1.90;99.90
59146;DHT22;44928;53.074;6.646;2023-12-04T14:41:28;1.80;99.90
59146;DHT22;44928;53.074;6.646;2023-12-04T14:43:54;1.80;99.90
59146;DHT22;44928;53.074;6.646;2023-12-04T14:46:20;1.80;99.90
59146;DHT22;44928;53.074;6.646;2023-12-04T14:48:46;1.80;99.90
59146;DHT22;44928;53.074;6.646;2023-12-04T14:51:11;1.80;99.90
59146;DHT22;44928;53.074;6.646;2023-12-04T14:53:41;1.80;99.90
59146;DHT22;44928;53.074;6.646;2023-12-04T14:56:17;1.70;99.90
59146;DHT22;44928;53.074;6.646;2023-12-04T14:59:01;1.70;99.90
59146;DHT22;44928;53.074;6.646;2023-12-04T15:01:56;1.70;99.90
59146;DHT22;44928;53.074;6.646;2023-12-04T15:04:41;1.60;99.90
59146;DHT22;44928;53.074;6.646;2023-12-04T15:07:06;1.60;99.90
59146;DHT22;44928;53.074;6.646;2023-12-04T15:09:55;1.60;99.90
59146;DHT22;44928;53.074;6.646;2023-12-04T15:12:39;1.60;99.90
59146;DHT22;44928;53.074;6.646;2023-12-04T15:15:23;1.50;99.90
59146;DHT22;44928;53.074;6.646;2023-12-04T15:17:52;1.50;99.90
59146;DHT22;44928;53.074;6.646;2023-12-04T15:20:21;1.50;99.90
59146;DHT22;44928;53.074;6.646;2023-12-04T15:22:54;1.50;99.90
59146;DHT22;44928;53.074;6.646;2023-12-04T15:25:20;1.50;99.90
59146;DHT22;44928;53.074;6.646;2023-12-04T15:27:46;1.50;99.90
59146;DHT22;44928;53.074;6.646;2023-12-04T15:30:12;1.50;99.90
59146;DHT22;44928;53.074;6.646;2023-12-04T15:32:40;1.40;99.90
59146;DHT22;44928;53.074;6.646;2023-12-04T15:35:07;1.40;99.90
59146;DHT22;44928;53.074;6.646;2023-12-04T15:37:34;1.40;99.90
59146;DHT22;44928;53.074;6.646;2023-12-04T15:39:59;1.40;99.90
59146;DHT22;44928;53.074;6.646;2023-12-04T15:42:25;1.40;99.90
59146;DHT22;44928;53.074;6.646;2023-12-04T15:44:52;1.40;99.90
59146;DHT22;44928;53.074;6.646;2023-12-04T15:47:18;1.40;99.90
59146;DHT22;44928;53.074;6.646;2023-12-04T15:49:47;1.40;99.90